Merced, California
Current Conditions -  °F | °C
As of 8:53 PM on Wednesday 26 Nov 2014 (Local Time) from KMCE Reporting Station
Haze Haze  
Wind Chill: 11°   Ceiling: Unl
Heat Index: 11°   Visibility: 4mi
Dew Point:   Wind: 0mph
Humidity: 74%   Direction: NA
Pressure: 30.23"   Gusts: NA
Location:  37.3°N, 120.48°W
Report Text: KMCE 270453Z AUTO 00000KT 4SM HZ CLR 11/07 A3023 RMK AO2 SLP236 T01110067
Loading
Personal Weather Stations






























Interactive Weather Map New forecast layout! Learn more

10-Day Weather Forecast

Advertisements
Track Severe Weather on mobile